createdAt,value
2022-10-28T00:00:12.147Z,14.30
2022-10-28T00:02:41.002Z,14.10
2022-10-28T00:05:08.247Z,15.25
2022-10-28T00:07:35.026Z,14.20
2022-10-28T00:10:01.766Z,12.85
2022-10-28T00:12:28.486Z,14.43
2022-10-28T00:14:55.228Z,13.82
2022-10-28T00:17:21.986Z,14.40
2022-10-28T00:19:48.728Z,13.70
2022-10-28T00:22:15.549Z,13.60
2022-10-28T00:24:42.294Z,14.60
2022-10-28T00:27:09.047Z,13.80
2022-10-28T00:29:35.848Z,13.57
2022-10-28T00:32:02.647Z,13.20
2022-10-28T00:34:29.427Z,13.25
2022-10-28T00:36:56.148Z,13.30
2022-10-28T00:39:24.214Z,13.40
2022-10-28T00:41:53.172Z,13.23
2022-10-28T00:44:57.172Z,13.00
2022-10-28T00:47:42.893Z,13.05
2022-10-28T00:50:31.312Z,12.90
2022-10-28T00:53:03.426Z,11.98
2022-10-28T00:55:30.226Z,12.55
2022-10-28T00:57:57.027Z,12.10
2022-10-28T01:00:24.630Z,12.30
2022-10-28T01:02:51.528Z,12.90
2022-10-28T01:05:22.006Z,12.38
2022-10-28T01:07:50.553Z,13.50
2022-10-28T01:10:17.547Z,12.33
2022-10-28T01:13:06.848Z,13.45
2022-10-28T01:15:52.430Z,13.93
2022-10-28T01:18:37.727Z,13.18
2022-10-28T01:21:23.011Z,13.00
2022-10-28T01:24:08.475Z,12.43
2022-10-28T01:27:10.086Z,12.10
2022-10-28T01:29:39.651Z,12.50
2022-10-28T01:32:12.208Z,11.63
2022-10-28T01:35:20.874Z,11.98
2022-10-28T01:37:55.987Z,11.53
2022-10-28T01:40:44.286Z,12.60
2022-10-28T01:43:18.088Z,12.32
2022-10-28T01:46:26.850Z,12.18
2022-10-28T01:49:02.406Z,11.10
2022-10-28T01:52:04.234Z,11.23
2022-10-28T01:54:32.715Z,11.25
2022-10-28T01:56:59.450Z,12.25
2022-10-28T01:59:27.649Z,11.15
2022-10-28T02:01:55.072Z,11.98
2022-10-28T02:04:21.967Z,12.43
2022-10-28T02:06:52.410Z,12.23
2022-10-28T02:09:40.827Z,12.07
2022-10-28T02:12:27.186Z,11.93
2022-10-28T02:15:13.048Z,11.30
2022-10-28T02:17:58.447Z,11.87
2022-10-28T02:20:32.927Z,12.25
2022-10-28T02:22:59.570Z,11.90
2022-10-28T02:25:30.567Z,11.65
2022-10-28T02:27:58.680Z,12.00
2022-10-28T02:30:32.628Z,11.57
2022-10-28T02:33:00.788Z,11.95
2022-10-28T02:35:42.988Z,13.60
2022-10-28T02:38:13.686Z,11.93
2022-10-28T02:40:40.461Z,12.77
2022-10-28T02:43:08.846Z,12.00
2022-10-28T02:45:40.370Z,11.65
2022-10-28T02:48:20.205Z,11.45
2022-10-28T02:50:50.369Z,11.70
2022-10-28T02:53:22.692Z,12.45
2022-10-28T02:55:51.167Z,11.83
2022-10-28T02:58:17.928Z,11.60
2022-10-28T03:00:45.459Z,12.27
2022-10-28T03:03:12.747Z,11.30
2022-10-28T03:05:39.567Z,11.13
2022-10-28T03:08:06.305Z,11.13
2022-10-28T03:10:33.046Z,11.82
2022-10-28T03:12:59.806Z,11.93
2022-10-28T03:15:26.569Z,11.50
2022-10-28T03:17:53.720Z,11.45
2022-10-28T03:20:20.689Z,10.93
2022-10-28T03:22:47.411Z,10.23
2022-10-28T03:25:14.207Z,10.90
2022-10-28T03:27:41.570Z,10.07
2022-10-28T03:30:08.926Z,10.18
2022-10-28T03:32:35.746Z,11.30
2022-10-28T03:35:02.586Z,11.00
2022-10-28T03:37:29.287Z,10.70
2022-10-28T03:39:56.065Z,11.07
2022-10-28T03:42:22.788Z,12.10
2022-10-28T03:44:49.546Z,11.23
2022-10-28T03:47:16.289Z,12.23
2022-10-28T03:49:43.027Z,12.70
2022-10-28T03:52:09.826Z,12.02
2022-10-28T03:54:36.547Z,13.73
2022-10-28T03:57:03.386Z,12.73
2022-10-28T03:59:30.233Z,13.70
2022-10-28T04:01:57.068Z,13.30
2022-10-28T04:04:28.340Z,13.75
2022-10-28T04:06:57.465Z,13.65
2022-10-28T04:09:24.249Z,12.87
2022-10-28T04:11:50.985Z,11.80
2022-10-28T04:14:17.727Z,12.63
2022-10-28T04:16:44.514Z,12.20
2022-10-28T04:19:11.268Z,12.40
2022-10-28T04:21:38.086Z,11.70
2022-10-28T04:24:05.366Z,11.77
2022-10-28T04:26:32.226Z,11.57
2022-10-28T04:28:59.026Z,12.32
2022-10-28T04:31:25.786Z,12.18
2022-10-28T04:33:52.509Z,11.13
2022-10-28T04:36:19.469Z,12.82
2022-10-28T04:38:46.227Z,14.05
2022-10-28T04:41:13.645Z,11.48
2022-10-28T04:43:40.546Z,12.43
2022-10-28T04:46:07.308Z,12.30
2022-10-28T04:48:34.306Z,11.25
2022-10-28T04:51:01.112Z,11.60
2022-10-28T04:53:27.868Z,11.23
2022-10-28T04:55:58.249Z,11.00
2022-10-28T04:58:25.812Z,11.20
2022-10-28T05:00:52.669Z,11.50
2022-10-28T05:03:19.430Z,12.23
2022-10-28T05:05:46.288Z,11.93
2022-10-28T05:08:13.016Z,12.55
2022-10-28T05:10:39.767Z,13.40
2022-10-28T05:13:06.511Z,16.00
2022-10-28T05:15:33.329Z,15.48
2022-10-28T05:18:00.206Z,14.43
2022-10-28T05:20:26.946Z,15.38
2022-10-28T05:22:55.160Z,14.50
2022-10-28T05:25:22.386Z,14.15
2022-10-28T05:27:49.126Z,13.73
2022-10-28T05:30:15.919Z,15.07
2022-10-28T05:32:42.689Z,14.98
2022-10-28T05:35:09.746Z,14.10
2022-10-28T05:37:36.609Z,13.63
2022-10-28T05:40:03.930Z,14.30
2022-10-28T05:42:30.707Z,13.93
2022-10-28T05:44:57.426Z,16.80
2022-10-28T05:47:24.266Z,13.93
2022-10-28T05:49:51.009Z,14.13
2022-10-28T05:52:17.746Z,13.75
2022-10-28T05:54:44.487Z,13.93
2022-10-28T05:57:11.206Z,17.25
2022-10-28T05:59:37.944Z,16.80
2022-10-28T06:02:04.747Z,18.42
2022-10-28T06:04:32.985Z,17.48
2022-10-28T06:06:59.811Z,18.27
2022-10-28T06:09:28.467Z,18.45
2022-10-28T06:11:53.675Z,18.93
2022-10-28T06:14:20.435Z,18.98
2022-10-28T06:16:47.218Z,17.45
2022-10-28T06:19:13.980Z,15.18
2022-10-28T06:21:40.718Z,15.60
2022-10-28T06:24:12.002Z,16.47
2022-10-28T06:26:39.245Z,15.85
2022-10-28T06:29:08.609Z,16.38
2022-10-28T06:31:38.690Z,16.73
2022-10-28T06:34:05.490Z,16.00
2022-10-28T06:36:32.272Z,16.97
2022-10-28T06:38:59.096Z,16.85
2022-10-28T06:41:25.836Z,17.20
2022-10-28T06:43:52.665Z,16.98
2022-10-28T06:46:19.562Z,16.67
2022-10-28T06:48:47.959Z,16.43
2022-10-28T06:51:17.000Z,18.15
2022-10-28T06:53:43.802Z,18.70
2022-10-28T06:56:10.865Z,18.15
2022-10-28T06:58:37.646Z,18.30
2022-10-28T07:01:07.389Z,18.23
2022-10-28T07:03:34.229Z,18.52
2022-10-28T07:06:01.201Z,19.33
2022-10-28T07:08:28.111Z,18.10
2022-10-28T07:10:58.316Z,18.02
2022-10-28T07:13:25.237Z,17.70
2022-10-28T07:15:56.519Z,18.58
2022-10-28T07:18:23.843Z,18.40
2022-10-28T07:20:50.703Z,17.58
2022-10-28T07:23:17.665Z,19.23
2022-10-28T07:25:45.876Z,18.87
2022-10-28T07:28:12.668Z,19.80
2022-10-28T07:30:39.487Z,19.05
2022-10-28T07:33:06.277Z,19.85
2022-10-28T07:35:33.091Z,19.77
2022-10-28T07:37:59.953Z,19.00
2022-10-28T07:40:26.799Z,18.35
2022-10-28T07:42:53.850Z,17.80
2022-10-28T07:45:20.850Z,17.20
2022-10-28T07:47:47.654Z,18.83
2022-10-28T07:50:14.456Z,18.93
2022-10-28T07:52:41.193Z,18.17
2022-10-28T07:55:08.160Z,18.00
2022-10-28T07:57:35.167Z,16.50
2022-10-28T08:00:02.006Z,17.85
2022-10-28T08:02:28.780Z,18.07
2022-10-28T08:04:56.837Z,17.70
2022-10-28T08:07:23.595Z,17.33
2022-10-28T08:09:52.024Z,17.17
2022-10-28T08:12:18.879Z,16.58
2022-10-28T08:14:45.617Z,16.47
2022-10-28T08:17:12.382Z,16.75
2022-10-28T08:19:39.134Z,17.13
2022-10-28T08:22:05.947Z,16.35
2022-10-28T08:24:32.709Z,16.63
2022-10-28T08:26:59.530Z,15.30
2022-10-28T08:29:29.196Z,15.77
2022-10-28T08:31:57.893Z,15.45
2022-10-28T08:34:29.760Z,15.20
2022-10-28T08:36:57.342Z,15.15
2022-10-28T08:39:24.186Z,14.37
2022-10-28T08:41:55.583Z,14.93
2022-10-28T08:45:01.270Z,13.85
2022-10-28T08:47:49.617Z,14.20
2022-10-28T08:50:18.457Z,13.40
2022-10-28T08:53:05.777Z,12.50
2022-10-28T08:55:37.391Z,12.25
2022-10-28T08:58:25.694Z,11.40
2022-10-28T09:00:54.190Z,11.52
2022-10-28T09:03:23.672Z,11.48
2022-10-28T09:06:04.393Z,10.80
2022-10-28T09:08:34.051Z,11.02
2022-10-28T09:11:00.690Z,11.23
2022-10-28T09:13:46.430Z,11.23
2022-10-28T09:16:31.712Z,12.18
2022-10-28T09:18:59.334Z,11.50
2022-10-28T09:21:47.472Z,12.35
2022-10-28T09:24:53.752Z,12.63
2022-10-28T09:27:42.954Z,11.23
2022-10-28T09:30:28.108Z,12.02
2022-10-28T09:33:36.973Z,11.43
2022-10-28T09:36:04.241Z,11.70
2022-10-28T09:38:33.031Z,12.23
2022-10-28T09:41:25.571Z,11.80
2022-10-28T09:43:55.155Z,12.30
2022-10-28T09:46:22.526Z,10.67
2022-10-28T09:48:50.356Z,11.15
2022-10-28T09:51:21.974Z,12.20
2022-10-28T09:54:08.074Z,11.60
2022-10-28T09:56:34.854Z,11.43
2022-10-28T09:59:03.100Z,11.93
2022-10-28T10:01:34.946Z,11.85
2022-10-28T10:04:01.891Z,12.40
2022-10-28T10:06:42.832Z,12.88
2022-10-28T10:09:14.674Z,12.82
2022-10-28T10:11:43.993Z,11.93
2022-10-28T10:14:14.487Z,11.52
2022-10-28T10:16:53.333Z,13.00
2022-10-28T10:19:20.173Z,12.55
2022-10-28T10:21:50.971Z,12.45
2022-10-28T10:24:33.314Z,12.23
2022-10-28T10:27:26.853Z,13.32
2022-10-28T10:29:53.691Z,13.57
2022-10-28T10:32:24.275Z,13.30
2022-10-28T10:35:01.998Z,13.13
2022-10-28T10:37:29.873Z,12.40
2022-10-28T10:40:18.740Z,10.98
2022-10-28T10:42:57.508Z,12.02
2022-10-28T10:45:33.214Z,11.10
2022-10-28T10:48:15.495Z,11.75
2022-10-28T10:50:43.705Z,10.87
2022-10-28T10:53:29.372Z,10.38
2022-10-28T10:56:03.655Z,11.90
2022-10-28T10:58:35.613Z,11.63
2022-10-28T11:01:04.476Z,12.18
2022-10-28T11:03:34.972Z,11.53
2022-10-28T11:08:48.584Z,11.90
2022-10-28T11:11:20.040Z,11.98
2022-10-28T11:13:47.203Z,12.50
2022-10-28T11:16:19.398Z,11.37
2022-10-28T11:18:47.432Z,11.50
2022-10-28T11:21:35.956Z,11.05
2022-10-28T11:24:29.893Z,10.48
2022-10-28T11:27:18.333Z,12.00
2022-10-28T11:29:45.597Z,10.80
2022-10-28T11:32:18.135Z,10.57
2022-10-28T11:35:04.215Z,11.27
2022-10-28T11:37:40.117Z,11.25
2022-10-28T11:40:18.775Z,11.80
2022-10-28T11:43:06.983Z,12.43
2022-10-28T11:45:51.611Z,12.50
2022-10-28T11:48:41.357Z,12.75
2022-10-28T11:51:52.205Z,10.98
2022-10-28T11:54:45.136Z,12.15
2022-10-28T11:57:19.376Z,12.20
2022-10-28T12:00:07.876Z,11.70
2022-10-28T12:03:11.894Z,11.88
2022-10-28T12:05:50.156Z,11.07
2022-10-28T12:08:27.307Z,11.15
2022-10-28T12:11:31.516Z,9.03
2022-10-28T12:14:45.256Z,8.82
2022-10-28T12:17:17.684Z,8.98
2022-10-28T12:19:57.068Z,9.75
2022-10-28T12:22:46.736Z,9.45
2022-10-28T12:25:18.678Z,9.10
2022-10-28T12:27:46.675Z,9.40
2022-10-28T12:30:13.334Z,10.10
2022-10-28T12:32:40.074Z,9.57
2022-10-28T12:35:16.037Z,10.18
2022-10-28T12:37:48.962Z,9.87
2022-10-28T12:40:22.635Z,10.00
2022-10-28T12:42:55.586Z,9.30
2022-10-28T12:45:22.876Z,8.90
2022-10-28T12:47:59.221Z,8.70
2022-10-28T12:51:03.337Z,8.80
2022-10-28T12:54:03.401Z,8.32
2022-10-28T12:56:36.448Z,8.88
2022-10-28T12:59:25.113Z,7.85
2022-10-28T13:01:52.032Z,8.15
2022-10-28T13:04:18.955Z,7.47
2022-10-28T13:07:23.115Z,7.88
2022-10-28T13:09:52.795Z,8.00
2022-10-28T13:12:53.381Z,8.07
2022-10-28T13:15:38.816Z,8.60
2022-10-28T13:18:27.877Z,8.07
2022-10-28T13:21:06.354Z,8.75
2022-10-28T13:23:35.733Z,9.90
2022-10-28T13:26:21.017Z,10.00
2022-10-28T13:28:49.596Z,9.43
2022-10-28T13:31:16.387Z,10.50
2022-10-28T13:33:58.493Z,10.07
2022-10-28T13:36:41.001Z,10.63
2022-10-28T13:39:40.933Z,10.38
2022-10-28T13:42:13.719Z,9.85
2022-10-28T13:45:01.690Z,11.00
2022-10-28T13:47:30.415Z,10.90
2022-10-28T13:50:11.038Z,10.02
2022-10-28T13:52:38.972Z,10.45
2022-10-28T13:55:27.773Z,10.75
2022-10-28T13:58:03.426Z,10.37
2022-10-28T14:00:30.195Z,10.93
2022-10-28T14:03:04.968Z,11.40
2022-10-28T14:05:37.935Z,10.93
2022-10-28T14:08:38.650Z,10.93
2022-10-28T14:11:09.095Z,11.10
2022-10-28T14:13:40.498Z,10.73
2022-10-28T14:16:16.310Z,11.60
2022-10-28T14:18:45.111Z,10.73
2022-10-28T14:21:12.353Z,11.05
2022-10-28T14:23:45.149Z,10.50
2022-10-28T14:26:11.952Z,10.52
2022-10-28T14:28:38.631Z,11.15
2022-10-28T14:31:08.337Z,10.60
2022-10-28T14:33:38.610Z,11.38
2022-10-28T14:36:17.340Z,11.77
2022-10-28T14:39:07.907Z,10.45
2022-10-28T14:41:53.102Z,11.93
2022-10-28T14:44:41.676Z,11.40
2022-10-28T14:47:49.788Z,11.73
2022-10-28T14:50:19.462Z,11.67
2022-10-28T14:52:46.219Z,12.02
2022-10-28T14:55:30.293Z,12.15
2022-10-28T14:58:18.767Z,11.88
2022-10-28T15:01:06.878Z,12.05
2022-10-28T15:03:33.653Z,11.90
2022-10-28T15:06:19.093Z,12.30
2022-10-28T15:08:45.816Z,11.77
2022-10-28T15:11:16.177Z,11.80
2022-10-28T15:13:43.015Z,11.48
2022-10-28T15:16:22.614Z,11.60
2022-10-28T15:18:50.799Z,12.05
2022-10-28T15:21:18.797Z,12.45
2022-10-28T15:23:47.489Z,12.25
2022-10-28T15:26:15.779Z,12.55
2022-10-28T15:28:42.813Z,11.63
2022-10-28T15:31:09.655Z,12.10
2022-10-28T15:33:40.522Z,12.30
2022-10-28T15:36:23.738Z,12.45
2022-10-28T15:38:51.131Z,12.50
2022-10-28T15:41:24.055Z,13.23
2022-10-28T15:43:55.730Z,12.38
2022-10-28T15:46:23.167Z,13.13
2022-10-28T15:48:54.017Z,13.75
2022-10-28T15:51:21.155Z,14.45
2022-10-28T15:53:49.022Z,13.60
2022-10-28T15:56:15.814Z,14.35
2022-10-28T15:58:43.679Z,13.55
2022-10-28T16:01:31.664Z,13.55
2022-10-28T16:03:58.532Z,14.60
2022-10-28T16:06:30.884Z,14.50
2022-10-28T16:09:01.739Z,14.68
2022-10-28T16:11:28.440Z,14.57
2022-10-28T16:13:55.213Z,14.18
2022-10-28T16:16:26.751Z,15.13
2022-10-28T16:19:09.481Z,15.57
2022-10-28T16:21:36.872Z,15.35
2022-10-28T16:24:03.799Z,15.90
2022-10-28T16:26:31.492Z,15.70
2022-10-28T16:28:58.393Z,16.42
2022-10-28T16:31:27.377Z,15.43
2022-10-28T16:33:54.228Z,15.57
2022-10-28T16:36:21.011Z,15.60
2022-10-28T16:38:47.832Z,16.20
2022-10-28T16:41:18.521Z,15.60
2022-10-28T16:43:45.578Z,15.97
2022-10-28T16:46:12.897Z,17.08
2022-10-28T16:48:39.857Z,16.17
2022-10-28T16:51:19.475Z,16.10
2022-10-28T16:53:51.006Z,16.65
2022-10-28T16:56:17.836Z,16.33
2022-10-28T16:58:44.689Z,17.35
2022-10-28T17:01:11.769Z,17.73
2022-10-28T17:03:38.713Z,17.85
2022-10-28T17:06:05.654Z,17.85
2022-10-28T17:09:00.712Z,18.07
2022-10-28T17:11:19.643Z,17.83
2022-10-28T17:13:46.610Z,18.27
2022-10-28T17:16:13.438Z,18.08
2022-10-28T17:18:40.378Z,19.40
2022-10-28T17:21:07.180Z,19.57
2022-10-28T17:23:33.926Z,19.67
2022-10-28T17:26:01.664Z,19.15
2022-10-28T17:28:28.669Z,20.52
2022-10-28T17:31:03.579Z,19.83
2022-10-28T17:33:30.403Z,19.80
2022-10-28T17:36:01.657Z,20.80
2022-10-28T17:38:29.481Z,20.80
2022-10-28T17:40:56.338Z,20.52
2022-10-28T17:43:23.222Z,21.75
2022-10-28T17:45:50.653Z,21.80
2022-10-28T17:48:17.453Z,21.40
2022-10-28T17:50:45.284Z,21.95
2022-10-28T17:53:12.094Z,21.52
2022-10-28T17:55:38.925Z,23.20
2022-10-28T17:58:05.793Z,22.10
2022-10-28T18:00:32.673Z,24.27
2022-10-28T18:02:59.469Z,25.20
2022-10-28T18:05:26.233Z,24.98
2022-10-28T18:07:56.551Z,24.77
2022-10-28T18:10:23.616Z,25.23
2022-10-28T18:12:51.956Z,25.52
2022-10-28T18:15:18.996Z,25.65
2022-10-28T18:17:49.852Z,24.08
2022-10-28T18:20:16.811Z,24.55
2022-10-28T18:22:43.714Z,25.00
2022-10-28T18:25:10.476Z,26.75
2022-10-28T18:27:38.413Z,25.83
2022-10-28T18:30:05.737Z,27.33
2022-10-28T18:32:32.853Z,28.27
2022-10-28T18:34:59.686Z,26.33
2022-10-28T18:37:28.454Z,27.05
2022-10-28T18:39:55.219Z,26.98
2022-10-28T18:42:22.264Z,26.95
2022-10-28T18:44:49.183Z,27.60
2022-10-28T18:47:15.932Z,28.03
2022-10-28T18:49:45.569Z,26.30
2022-10-28T18:52:12.547Z,26.85
2022-10-28T18:54:39.279Z,25.45
2022-10-28T18:57:06.052Z,25.88
2022-10-28T18:59:32.784Z,26.33
2022-10-28T19:01:59.676Z,27.02
2022-10-28T19:04:26.532Z,27.10
2022-10-28T19:06:53.355Z,27.13
2022-10-28T19:09:20.115Z,26.63
2022-10-28T19:11:46.877Z,27.07
2022-10-28T19:14:13.848Z,27.50
2022-10-28T19:16:40.677Z,28.95
2022-10-28T19:19:07.474Z,26.75
2022-10-28T19:21:34.398Z,29.35
2022-10-28T19:24:01.801Z,27.93
2022-10-28T19:26:28.695Z,29.63
2022-10-28T19:28:55.483Z,30.38
2022-10-28T19:31:24.097Z,30.60
2022-10-28T19:33:52.393Z,29.38
2022-10-28T19:36:23.661Z,29.13
2022-10-28T19:38:50.978Z,29.80
2022-10-28T19:41:18.775Z,29.23
2022-10-28T19:43:45.893Z,28.65
2022-10-28T19:46:16.896Z,31.30
2022-10-28T19:48:46.071Z,30.80
2022-10-28T19:51:14.694Z,30.85
2022-10-28T19:53:41.615Z,31.90
2022-10-28T19:56:08.453Z,30.85
2022-10-28T19:58:35.260Z,30.05
2022-10-28T20:01:04.162Z,30.37
2022-10-28T20:03:34.403Z,31.35
2022-10-28T20:06:07.260Z,30.88
2022-10-28T20:08:35.456Z,29.23
2022-10-28T20:11:04.416Z,31.50
2022-10-28T20:13:31.452Z,29.70
2022-10-28T20:16:01.534Z,29.50
2022-10-28T20:18:29.919Z,31.33
2022-10-28T20:20:57.255Z,30.77
2022-10-28T20:23:24.059Z,30.92
2022-10-28T20:25:52.333Z,31.80
2022-10-28T20:28:19.235Z,31.08
2022-10-28T20:30:58.813Z,31.80
2022-10-28T20:33:25.957Z,32.38
2022-10-28T20:35:53.554Z,29.70
2022-10-28T20:38:20.832Z,29.83
2022-10-28T20:41:16.270Z,30.02
2022-10-28T20:43:43.004Z,30.63
2022-10-28T20:46:16.099Z,30.55
2022-10-28T20:48:45.910Z,30.08
2022-10-28T20:51:12.728Z,30.60
2022-10-28T20:53:39.650Z,32.95
2022-10-28T20:56:06.758Z,34.22
2022-10-28T20:58:34.387Z,34.25
2022-10-28T21:01:06.122Z,36.47
2022-10-28T21:03:33.117Z,36.17
2022-10-28T21:06:01.806Z,35.05
2022-10-28T21:08:28.675Z,34.53
2022-10-28T21:10:55.546Z,35.50
2022-10-28T21:13:22.377Z,36.30
2022-10-28T21:15:53.193Z,34.00
2022-10-28T21:18:23.597Z,33.17
2022-10-28T21:20:55.455Z,33.42
2022-10-28T21:23:23.593Z,33.40
2022-10-28T21:26:00.437Z,32.80
2022-10-28T21:28:28.735Z,30.90
2022-10-28T21:31:02.592Z,31.88
2022-10-28T21:33:29.373Z,30.73
2022-10-28T21:35:59.959Z,33.03
2022-10-28T21:38:27.302Z,32.83
2022-10-28T21:41:13.895Z,32.60
2022-10-28T21:43:42.277Z,31.02
2022-10-28T21:46:09.195Z,31.42
2022-10-28T21:48:36.387Z,32.13
2022-10-28T21:51:06.348Z,32.17
2022-10-28T21:53:36.136Z,30.27
2022-10-28T21:56:16.985Z,31.75
2022-10-28T21:58:44.975Z,30.83
2022-10-28T22:01:16.382Z,30.60
2022-10-28T22:03:43.252Z,30.73
2022-10-28T22:06:10.295Z,30.97
2022-10-28T22:08:37.034Z,29.88
2022-10-28T22:11:05.577Z,31.17
2022-10-28T22:13:33.814Z,31.40
2022-10-28T22:16:04.962Z,30.92
2022-10-28T22:18:32.778Z,31.67
2022-10-28T22:21:20.436Z,31.58
2022-10-28T22:23:47.357Z,31.80
2022-10-28T22:26:16.394Z,31.33
2022-10-28T22:28:43.215Z,31.15
2022-10-28T22:31:12.058Z,30.20
2022-10-28T22:33:38.862Z,28.33
2022-10-28T22:36:07.334Z,29.80
2022-10-28T22:38:34.138Z,28.55
2022-10-28T22:41:16.915Z,27.55
2022-10-28T22:43:45.400Z,28.20
2022-10-28T22:46:12.475Z,28.00
2022-10-28T22:48:39.316Z,27.13
2022-10-28T22:51:06.176Z,27.30
2022-10-28T22:53:32.995Z,27.60
2022-10-28T22:55:59.733Z,27.40
2022-10-28T22:58:26.677Z,27.90
2022-10-28T23:00:53.459Z,27.85
2022-10-28T23:03:20.255Z,26.80
2022-10-28T23:05:47.100Z,26.95
2022-10-28T23:08:15.321Z,27.40
2022-10-28T23:10:42.115Z,26.90
2022-10-28T23:13:11.894Z,28.02
2022-10-28T23:15:38.621Z,27.33
2022-10-28T23:18:05.415Z,26.67
2022-10-28T23:20:32.153Z,26.57
2022-10-28T23:22:58.973Z,27.75
2022-10-28T23:25:25.776Z,27.33
2022-10-28T23:27:52.711Z,27.45
2022-10-28T23:30:19.674Z,28.00
2022-10-28T23:32:46.471Z,27.70
2022-10-28T23:35:13.259Z,30.30
2022-10-28T23:37:40.020Z,29.77
2022-10-28T23:40:07.216Z,29.25
2022-10-28T23:42:33.974Z,30.23
2022-10-28T23:45:00.753Z,29.90
2022-10-28T23:47:27.496Z,30.80
2022-10-28T23:49:54.273Z,29.90
2022-10-28T23:52:21.074Z,31.00
2022-10-28T23:54:47.813Z,29.50
2022-10-28T23:57:14.654Z,28.77
2022-10-28T23:59:41.375Z,28.35
